Knob Noster, Missouri
Current Conditions -  °F | °C
As of 9:58 AM on Monday 24 Nov 2014 (Local Time) from KSZL Reporting Station
Overcast Overcast  
Wind Chill: 28°   Ceiling: 3400
Heat Index: 36°   Visibility: 10mi
Dew Point: 25°   Wind: 13mph
Humidity: 64%   Direction: 290°WNW
Pressure: 29.72"   Gusts: 22mph
Location:  38.77°N, 93.56°W
Report Text: KSZL 241558Z 29011G19KT 10SM OVC034 02/M04 A2972 RMK AO2A SLP072 T00231039 $
Loading
Personal Weather Stations






























Interactive Weather Map New forecast layout! Learn more

10-Day Weather Forecast

Advertisements
Track Severe Weather on mobile